createdAt,value
2023-02-23T00:01:47.505Z,23.44
2023-02-23T00:04:13.851Z,23.43
2023-02-23T00:06:40.289Z,23.42
2023-02-23T00:09:06.590Z,23.43
2023-02-23T00:11:32.968Z,23.43
2023-02-23T00:13:59.345Z,23.42
2023-02-23T00:16:25.741Z,23.40
2023-02-23T00:18:52.080Z,23.41
2023-02-23T00:21:18.852Z,23.39
2023-02-23T00:23:44.799Z,23.40
2023-02-23T00:26:11.177Z,23.40
2023-02-23T00:28:37.522Z,23.38
2023-02-23T00:31:03.997Z,23.37
2023-02-23T00:33:30.315Z,23.37
2023-02-23T00:35:56.697Z,23.36
2023-02-23T00:38:23.048Z,23.37
2023-02-23T00:40:49.443Z,23.36
2023-02-23T00:43:15.787Z,23.35
2023-02-23T00:45:42.195Z,23.35
2023-02-23T00:48:08.524Z,23.33
2023-02-23T00:50:35.852Z,23.33
2023-02-23T00:53:01.259Z,23.32
2023-02-23T00:55:27.653Z,23.32
2023-02-23T00:57:53.996Z,23.32
2023-02-23T01:00:22.029Z,23.30
2023-02-23T01:02:46.733Z,23.28
2023-02-23T01:05:13.196Z,23.29
2023-02-23T01:07:39.638Z,23.28
2023-02-23T01:10:05.992Z,23.27
2023-02-23T01:12:32.376Z,23.27
2023-02-23T01:14:58.754Z,23.28
2023-02-23T01:17:25.159Z,23.27
2023-02-23T01:19:51.473Z,23.26
2023-02-23T01:22:17.995Z,23.24
2023-02-23T01:24:44.337Z,23.25
2023-02-23T01:27:10.747Z,23.23
2023-02-23T01:29:37.086Z,23.22
2023-02-23T01:32:04.995Z,23.22
2023-02-23T01:34:29.808Z,23.22
2023-02-23T01:36:56.194Z,23.21
2023-02-23T01:39:22.546Z,23.19
2023-02-23T01:41:48.943Z,23.21
2023-02-23T01:44:15.328Z,23.20
2023-02-23T01:46:41.658Z,23.18
2023-02-23T01:49:08.037Z,23.18
2023-02-23T01:51:34.445Z,23.17
2023-02-23T01:54:00.780Z,23.16
2023-02-23T01:56:27.173Z,23.16
2023-02-23T01:58:53.531Z,23.15
2023-02-23T02:01:20.262Z,23.14
2023-02-23T02:03:46.248Z,23.13
2023-02-23T02:06:12.655Z,23.12
2023-02-23T02:08:38.990Z,23.13
2023-02-23T02:11:05.377Z,23.13
2023-02-23T02:13:32.662Z,23.13
2023-02-23T02:15:58.130Z,23.11
2023-02-23T02:18:24.441Z,23.11
2023-02-23T02:20:50.834Z,23.11
2023-02-23T02:23:17.174Z,23.08
2023-02-23T02:25:43.569Z,23.08
2023-02-23T02:28:09.916Z,23.07
2023-02-23T02:30:36.408Z,23.08
2023-02-23T02:33:02.674Z,23.08
2023-02-23T02:35:29.060Z,23.07
2023-02-23T02:37:55.407Z,23.06
2023-02-23T02:40:21.794Z,23.07
2023-02-23T02:42:48.142Z,23.05
2023-02-23T02:45:14.540Z,23.04
2023-02-23T02:47:40.886Z,23.04
2023-02-23T02:50:07.273Z,23.04
2023-02-23T02:52:33.623Z,23.04
2023-02-23T02:55:01.401Z,23.02
2023-02-23T02:57:28.118Z,22.99
2023-02-23T02:59:52.776Z,23.01
2023-02-23T03:02:19.118Z,23.01
2023-02-23T03:04:45.556Z,23.01
2023-02-23T03:07:11.841Z,22.97
2023-02-23T03:09:38.228Z,22.96
2023-02-23T03:12:04.591Z,22.94
2023-02-23T03:14:30.983Z,22.93
2023-02-23T03:16:57.363Z,22.92
2023-02-23T03:19:23.740Z,22.93
2023-02-23T03:21:50.075Z,22.92
2023-02-23T03:24:16.471Z,22.93
2023-02-23T03:26:42.820Z,22.93
2023-02-23T03:29:09.247Z,22.92
2023-02-23T03:31:35.673Z,22.92
2023-02-23T03:34:01.998Z,22.93
2023-02-23T03:36:28.352Z,22.91
2023-02-23T03:38:57.814Z,22.89
2023-02-23T03:41:24.161Z,22.90
2023-02-23T03:43:50.560Z,22.90
2023-02-23T03:46:16.911Z,22.91
2023-02-23T03:48:43.310Z,22.88
2023-02-23T03:51:09.674Z,22.89
2023-02-23T03:53:36.049Z,22.88
2023-02-23T03:56:02.392Z,22.88
2023-02-23T03:58:28.776Z,22.88
2023-02-23T04:00:55.119Z,22.88
2023-02-23T04:03:21.577Z,22.88
2023-02-23T04:05:47.874Z,22.85
2023-02-23T04:08:14.277Z,22.84
2023-02-23T04:10:40.617Z,22.85
2023-02-23T04:13:07.005Z,22.82
2023-02-23T04:15:33.378Z,22.82
2023-02-23T04:17:59.764Z,22.83
2023-02-23T04:20:26.146Z,22.82
2023-02-23T04:22:52.504Z,22.81
2023-02-23T04:25:18.835Z,22.84
2023-02-23T04:27:45.227Z,22.83
2023-02-23T04:30:11.704Z,22.85
2023-02-23T04:32:38.168Z,22.82
2023-02-23T04:35:04.342Z,22.85
2023-02-23T04:37:30.728Z,22.85
2023-02-23T04:39:57.070Z,22.83
2023-02-23T04:42:23.451Z,22.85
2023-02-23T04:44:49.801Z,22.85
2023-02-23T04:47:16.188Z,22.87
2023-02-23T04:49:42.537Z,22.87
2023-02-23T04:52:08.923Z,22.85
2023-02-23T04:54:35.270Z,22.83
2023-02-23T04:57:01.663Z,22.83
2023-02-23T04:59:28.000Z,22.81
2023-02-23T05:01:54.383Z,22.83
2023-02-23T05:04:20.766Z,22.82
2023-02-23T05:06:47.147Z,22.84
2023-02-23T05:09:13.492Z,22.84
2023-02-23T05:11:39.875Z,22.84
2023-02-23T05:14:06.252Z,22.84
2023-02-23T05:16:32.597Z,22.84
2023-02-23T05:18:58.932Z,22.84
2023-02-23T05:21:25.323Z,22.87
2023-02-23T05:23:51.690Z,22.85
2023-02-23T05:26:18.055Z,22.85
2023-02-23T05:28:44.393Z,22.85
2023-02-23T05:31:10.876Z,22.85
2023-02-23T05:33:37.124Z,22.87
2023-02-23T05:36:03.543Z,22.85
2023-02-23T05:38:29.882Z,22.85
2023-02-23T05:40:56.303Z,22.91
2023-02-23T05:43:22.603Z,22.95
2023-02-23T05:45:49.013Z,22.94
2023-02-23T05:48:15.345Z,22.96
2023-02-23T05:50:41.729Z,23.00
2023-02-23T05:53:08.064Z,23.08
2023-02-23T05:55:34.448Z,23.04
2023-02-23T05:58:00.825Z,23.04
2023-02-23T06:00:27.213Z,23.12
2023-02-23T06:02:53.667Z,23.11
2023-02-23T06:05:19.944Z,23.10
2023-02-23T06:07:46.292Z,23.11
2023-02-23T06:10:12.678Z,23.13
2023-02-23T06:12:39.016Z,23.14
2023-02-23T06:15:05.405Z,23.17
2023-02-23T06:17:31.751Z,23.18
2023-02-23T06:19:58.144Z,23.19
2023-02-23T06:22:24.492Z,23.21
2023-02-23T06:24:50.894Z,23.22
2023-02-23T06:27:17.228Z,23.27
2023-02-23T06:29:43.652Z,23.30
2023-02-23T06:32:10.123Z,23.30
2023-02-23T06:34:36.390Z,23.26
2023-02-23T06:37:02.752Z,23.32
2023-02-23T06:39:29.152Z,23.30
2023-02-23T06:41:55.594Z,23.32
2023-02-23T06:44:21.996Z,23.32
2023-02-23T06:46:48.358Z,23.32
2023-02-23T06:49:16.580Z,23.40
2023-02-23T06:51:41.042Z,23.37
2023-02-23T06:54:07.468Z,23.37
2023-02-23T06:56:33.809Z,23.37
2023-02-23T06:59:00.229Z,23.51
2023-02-23T07:01:26.609Z,23.58
2023-02-23T07:03:53.023Z,23.39
2023-02-23T07:06:21.486Z,23.68
2023-02-23T07:08:47.883Z,23.49
2023-02-23T07:11:14.232Z,23.71
2023-02-23T07:13:40.621Z,23.82
2023-02-23T07:16:07.000Z,23.52
2023-02-23T07:18:33.345Z,23.49
2023-02-23T07:20:59.689Z,23.49
2023-02-23T07:23:26.077Z,23.49
2023-02-23T07:25:52.424Z,23.56
2023-02-23T07:28:18.808Z,23.58
2023-02-23T07:30:45.207Z,23.76
2023-02-23T07:33:11.590Z,23.86
2023-02-23T07:35:38.009Z,23.76
2023-02-23T07:38:04.422Z,23.75
2023-02-23T07:40:30.765Z,23.84
2023-02-23T07:42:58.364Z,23.80
2023-02-23T07:45:23.504Z,24.14
2023-02-23T07:47:49.899Z,23.84
2023-02-23T07:50:16.299Z,23.76
2023-02-23T07:52:42.680Z,24.36
2023-02-23T07:55:09.070Z,24.35
2023-02-23T07:57:35.474Z,24.15
2023-02-23T08:00:01.851Z,24.16
2023-02-23T08:02:28.227Z,24.45
2023-02-23T08:04:54.575Z,24.45
2023-02-23T08:07:20.960Z,24.46
2023-02-23T08:09:47.323Z,24.25
2023-02-23T08:12:13.733Z,24.32
2023-02-23T08:14:40.140Z,24.26
2023-02-23T08:17:06.583Z,24.13
2023-02-23T08:19:32.897Z,24.45
2023-02-23T08:21:59.278Z,24.27
2023-02-23T08:24:25.618Z,24.09
2023-02-23T08:26:52.032Z,24.17
2023-02-23T08:29:18.383Z,24.49
2023-02-23T08:31:44.924Z,24.43
2023-02-23T08:34:11.141Z,24.79
2023-02-23T08:36:37.544Z,24.58
2023-02-23T08:39:03.894Z,24.62
2023-02-23T08:41:30.271Z,24.62
2023-02-23T08:43:56.609Z,24.60
2023-02-23T08:46:23.106Z,24.65
2023-02-23T08:48:49.370Z,24.61
2023-02-23T08:51:15.780Z,24.55
2023-02-23T08:53:42.172Z,24.60
2023-02-23T08:56:08.559Z,24.73
2023-02-23T08:58:34.919Z,24.73
2023-02-23T09:01:01.332Z,24.71
2023-02-23T09:03:27.661Z,24.71
2023-02-23T09:05:54.158Z,24.72
2023-02-23T09:08:20.397Z,24.54
2023-02-23T09:10:46.785Z,24.37
2023-02-23T09:13:13.138Z,24.39
2023-02-23T09:15:39.567Z,24.38
2023-02-23T09:18:05.865Z,24.39
2023-02-23T09:20:32.256Z,24.32
2023-02-23T09:22:58.623Z,24.28
2023-02-23T09:25:25.006Z,24.34
2023-02-23T09:27:51.355Z,24.35
2023-02-23T09:30:17.757Z,24.43
2023-02-23T09:32:44.154Z,24.43
2023-02-23T09:35:10.469Z,24.38
2023-02-23T09:37:36.820Z,24.38
2023-02-23T09:40:03.216Z,24.37
2023-02-23T09:42:29.593Z,24.33
2023-02-23T09:44:55.961Z,24.37
2023-02-23T09:47:22.396Z,24.37
2023-02-23T09:49:48.798Z,24.36
2023-02-23T09:52:15.468Z,24.27
2023-02-23T09:54:41.525Z,24.36
2023-02-23T09:57:10.318Z,24.36
2023-02-23T09:59:36.723Z,24.38
2023-02-23T10:02:03.066Z,24.37
2023-02-23T10:04:29.498Z,24.39
2023-02-23T10:06:55.810Z,24.36
2023-02-23T10:09:22.206Z,24.32
2023-02-23T10:11:48.596Z,24.36
2023-02-23T10:14:14.984Z,24.63
2023-02-23T10:16:41.332Z,24.58
2023-02-23T10:19:07.739Z,24.83
2023-02-23T10:21:34.068Z,24.83
2023-02-23T10:24:00.643Z,24.70
2023-02-23T10:26:26.996Z,24.70
2023-02-23T10:28:53.403Z,24.71
2023-02-23T10:31:20.237Z,24.71
2023-02-23T10:36:30.529Z,25.20
2023-02-23T10:38:57.002Z,25.18
2023-02-23T10:41:23.400Z,24.81
2023-02-23T10:43:49.757Z,25.15
2023-02-23T10:46:16.182Z,25.31
2023-02-23T10:48:42.604Z,25.48
2023-02-23T10:51:08.977Z,25.37
2023-02-23T10:53:35.324Z,25.39
2023-02-23T10:56:01.722Z,25.33
2023-02-23T10:58:28.771Z,25.47
2023-02-23T11:00:54.566Z,25.23
2023-02-23T11:03:20.945Z,25.23
2023-02-23T11:05:47.345Z,25.24
2023-02-23T11:08:14.076Z,25.24
2023-02-23T11:10:40.130Z,25.35
2023-02-23T11:13:06.479Z,25.22
2023-02-23T11:15:49.298Z,24.99
2023-02-23T11:17:59.269Z,25.49
2023-02-23T11:20:25.662Z,25.34
2023-02-23T11:22:52.073Z,25.25
2023-02-23T11:25:18.473Z,25.22
2023-02-23T11:27:44.970Z,25.07
2023-02-23T11:30:11.296Z,25.20
2023-02-23T11:32:37.710Z,25.18
2023-02-23T11:35:04.037Z,25.30
2023-02-23T11:37:30.426Z,25.24
2023-02-23T11:39:57.026Z,25.24
2023-02-23T11:42:23.435Z,25.34
2023-02-23T11:44:49.790Z,25.47
2023-02-23T11:47:16.186Z,25.47
2023-02-23T11:49:42.526Z,25.07
2023-02-23T11:52:08.921Z,25.12
2023-02-23T11:54:35.269Z,25.08
2023-02-23T11:57:01.652Z,25.08
2023-02-23T11:59:28.010Z,25.25
2023-02-23T12:01:54.429Z,25.08
2023-02-23T12:04:20.772Z,25.20
2023-02-23T12:06:47.217Z,25.28
2023-02-23T12:09:13.543Z,25.19
2023-02-23T12:11:39.941Z,25.10
2023-02-23T12:14:06.307Z,24.99
2023-02-23T12:16:32.744Z,25.12
2023-02-23T12:18:59.101Z,25.03
2023-02-23T12:21:25.495Z,25.03
2023-02-23T12:23:53.021Z,25.00
2023-02-23T12:26:18.498Z,25.04
2023-02-23T12:28:44.582Z,25.04
2023-02-23T12:31:10.974Z,25.05
2023-02-23T12:33:37.345Z,25.01
2023-02-23T12:36:03.837Z,25.12
2023-02-23T12:38:30.165Z,25.07
2023-02-23T12:40:56.566Z,25.08
2023-02-23T12:43:22.921Z,25.03
2023-02-23T12:45:49.367Z,25.03
2023-02-23T12:48:15.792Z,25.14
2023-02-23T12:50:42.206Z,25.34
2023-02-23T12:53:08.556Z,25.34
2023-02-23T12:55:34.967Z,25.10
2023-02-23T12:58:01.340Z,24.92
2023-02-23T13:00:27.738Z,24.92
2023-02-23T13:02:54.152Z,25.04
2023-02-23T13:05:20.602Z,25.16
2023-02-23T13:07:46.914Z,25.07
2023-02-23T13:10:13.319Z,25.01
2023-02-23T13:12:39.693Z,25.01
2023-02-23T13:15:06.101Z,25.22
2023-02-23T13:17:32.439Z,24.99
2023-02-23T13:19:58.863Z,25.34
2023-02-23T13:22:25.182Z,25.52
2023-02-23T13:24:51.581Z,25.29
2023-02-23T13:27:17.938Z,25.22
2023-02-23T13:29:44.330Z,24.95
2023-02-23T13:32:10.731Z,25.50
2023-02-23T13:34:37.066Z,25.50
2023-02-23T13:37:03.474Z,25.15
2023-02-23T13:39:29.824Z,25.14
2023-02-23T13:41:56.201Z,25.38
2023-02-23T13:44:22.602Z,25.20
2023-02-23T13:46:48.994Z,25.02
2023-02-23T13:49:15.409Z,25.00
2023-02-23T13:51:41.750Z,24.91
2023-02-23T13:54:08.193Z,25.01
2023-02-23T13:56:34.569Z,25.17
2023-02-23T13:59:00.972Z,25.06
2023-02-23T14:01:27.611Z,25.21
2023-02-23T14:03:53.877Z,25.08
2023-02-23T14:06:20.224Z,25.19
2023-02-23T14:08:46.615Z,25.24
2023-02-23T14:11:13.007Z,25.08
2023-02-23T14:13:39.458Z,25.31
2023-02-23T14:16:05.823Z,25.24
2023-02-23T14:18:32.257Z,25.26
2023-02-23T14:20:58.621Z,25.20
2023-02-23T14:23:25.103Z,25.02
2023-02-23T14:25:51.439Z,25.08
2023-02-23T14:28:17.846Z,25.00
2023-02-23T14:30:44.339Z,25.00
2023-02-23T14:33:20.205Z,24.99
2023-02-23T14:35:37.012Z,24.84
2023-02-23T14:38:03.561Z,24.77
2023-02-23T14:40:29.971Z,24.89
2023-02-23T14:42:56.369Z,24.89
2023-02-23T14:45:22.742Z,25.04
2023-02-23T14:47:49.143Z,25.06
2023-02-23T14:50:15.503Z,24.95
2023-02-23T14:52:41.894Z,24.95
2023-02-23T14:55:08.236Z,24.96
2023-02-23T14:57:34.645Z,24.97
2023-02-23T15:00:01.014Z,24.97
2023-02-23T15:02:27.448Z,25.03
2023-02-23T15:04:53.757Z,24.90
2023-02-23T15:07:20.171Z,24.80
2023-02-23T15:09:46.518Z,24.80
2023-02-23T15:12:12.958Z,24.90
2023-02-23T15:14:39.326Z,24.88
2023-02-23T15:17:05.727Z,24.79
2023-02-23T15:19:32.152Z,24.79
2023-02-23T15:21:58.548Z,24.82
2023-02-23T15:24:24.901Z,24.82
2023-02-23T15:26:51.309Z,24.72
2023-02-23T15:29:17.712Z,24.82
2023-02-23T15:31:44.227Z,24.70
2023-02-23T15:34:10.462Z,24.70
2023-02-23T15:36:36.834Z,24.66
2023-02-23T15:39:03.208Z,24.65
2023-02-23T15:41:29.631Z,24.61
2023-02-23T15:43:55.988Z,24.56
2023-02-23T15:46:23.373Z,24.56
2023-02-23T15:51:29.109Z,24.68
2023-02-23T15:53:55.502Z,24.67
2023-02-23T15:56:21.862Z,24.59
2023-02-23T15:58:56.358Z,24.59
2023-02-23T16:01:14.700Z,24.69
2023-02-23T16:03:41.054Z,24.53
2023-02-23T16:06:07.463Z,24.53
2023-02-23T16:08:35.824Z,24.65
2023-02-23T16:11:00.211Z,24.65
2023-02-23T16:13:26.609Z,24.65
2023-02-23T16:15:53.002Z,24.60
2023-02-23T16:18:19.394Z,24.61
2023-02-23T16:20:45.726Z,24.62
2023-02-23T16:23:12.260Z,24.62
2023-02-23T16:25:38.478Z,24.55
2023-02-23T16:28:04.926Z,24.55
2023-02-23T16:30:31.282Z,24.60
2023-02-23T16:32:57.794Z,24.60
2023-02-23T16:35:24.030Z,24.58
2023-02-23T16:37:50.425Z,24.48
2023-02-23T16:40:18.986Z,24.48
2023-02-23T16:42:45.367Z,24.49
2023-02-23T16:45:11.720Z,24.53
2023-02-23T16:47:38.113Z,24.53
2023-02-23T16:50:13.890Z,24.51
2023-02-23T16:52:30.862Z,24.49
2023-02-23T16:54:57.207Z,24.35
2023-02-23T16:57:23.686Z,24.49
2023-02-23T16:59:50.028Z,24.35
2023-02-23T17:02:16.551Z,24.50
2023-02-23T17:04:45.270Z,24.50
2023-02-23T17:07:11.614Z,24.44
2023-02-23T17:09:37.947Z,24.47
2023-02-23T17:12:04.335Z,24.48
2023-02-23T17:14:30.688Z,24.46
2023-02-23T17:16:57.098Z,24.44
2023-02-23T17:19:24.609Z,24.44
2023-02-23T17:21:49.805Z,24.44
2023-02-23T17:24:16.161Z,24.43
2023-02-23T17:26:42.554Z,24.43
2023-02-23T17:29:08.903Z,24.41
2023-02-23T17:31:35.609Z,24.42
2023-02-23T17:34:01.795Z,24.40
2023-02-23T17:36:29.466Z,24.42
2023-02-23T17:38:54.578Z,24.40
2023-02-23T17:41:21.297Z,24.40
2023-02-23T17:43:47.316Z,24.39
2023-02-23T17:46:13.729Z,24.40
2023-02-23T17:48:40.023Z,24.39
2023-02-23T17:51:06.403Z,24.37
2023-02-23T17:53:32.744Z,24.37
2023-02-23T17:55:59.104Z,24.37
2023-02-23T17:58:25.455Z,24.36
2023-02-23T18:00:51.831Z,24.36
2023-02-23T18:03:18.247Z,24.37
2023-02-23T18:05:44.587Z,24.34
2023-02-23T18:08:10.927Z,24.32
2023-02-23T18:10:37.353Z,24.24
2023-02-23T18:13:03.695Z,24.33
2023-02-23T18:15:30.073Z,24.31
2023-02-23T18:17:56.415Z,24.30
2023-02-23T18:20:22.832Z,24.29
2023-02-23T18:22:49.169Z,24.29
2023-02-23T18:25:15.564Z,24.28
2023-02-23T18:27:41.906Z,24.29
2023-02-23T18:30:08.287Z,24.28
2023-02-23T18:32:34.715Z,24.26
2023-02-23T18:35:01.022Z,24.25
2023-02-23T18:37:27.410Z,24.25
2023-02-23T18:39:53.781Z,24.25
2023-02-23T18:42:20.109Z,24.23
2023-02-23T18:44:46.481Z,24.25
2023-02-23T18:47:12.833Z,24.20
2023-02-23T18:49:39.208Z,24.22
2023-02-23T18:52:05.549Z,24.19
2023-02-23T18:54:31.936Z,24.18
2023-02-23T18:56:58.312Z,24.16
2023-02-23T18:59:24.698Z,24.15
2023-02-23T19:01:51.042Z,24.13
2023-02-23T19:04:17.454Z,24.13
2023-02-23T19:06:43.803Z,24.10
2023-02-23T19:09:10.185Z,24.11
2023-02-23T19:11:36.564Z,24.09
2023-02-23T19:14:02.958Z,24.09
2023-02-23T19:16:29.340Z,24.08
2023-02-23T19:18:55.686Z,24.08
2023-02-23T19:21:22.290Z,24.07
2023-02-23T19:23:49.667Z,24.05
2023-02-23T19:26:14.802Z,24.05
2023-02-23T19:28:41.197Z,24.04
2023-02-23T19:31:07.557Z,24.02
2023-02-23T19:33:34.016Z,24.04
2023-02-23T19:36:00.248Z,24.03
2023-02-23T19:38:26.638Z,24.01
2023-02-23T19:40:53.061Z,24.01
2023-02-23T19:43:19.444Z,23.99
2023-02-23T19:45:45.791Z,23.98
2023-02-23T19:48:12.182Z,23.88
2023-02-23T19:50:38.517Z,23.88
2023-02-23T19:53:04.901Z,23.95
2023-02-23T19:55:31.241Z,23.95
2023-02-23T19:57:57.617Z,23.94
2023-02-23T20:00:23.997Z,23.93
2023-02-23T20:02:50.366Z,23.94
2023-02-23T20:05:16.756Z,23.92
2023-02-23T20:07:43.113Z,23.91
2023-02-23T20:10:09.453Z,23.91
2023-02-23T20:12:35.861Z,23.92
2023-02-23T20:15:02.205Z,23.91
2023-02-23T20:17:28.588Z,23.88
2023-02-23T20:19:54.938Z,23.87
2023-02-23T20:22:21.321Z,23.86
2023-02-23T20:24:47.657Z,23.83
2023-02-23T20:27:14.081Z,23.86
2023-02-23T20:29:40.441Z,23.84
2023-02-23T20:32:06.957Z,23.84
2023-02-23T20:34:33.175Z,23.82
2023-02-23T20:36:59.563Z,23.82
2023-02-23T20:39:25.902Z,23.82
2023-02-23T20:41:52.308Z,23.80
2023-02-23T20:44:18.643Z,23.80
2023-02-23T20:46:45.056Z,23.79
2023-02-23T20:49:12.355Z,23.80
2023-02-23T20:51:37.864Z,23.77
2023-02-23T20:54:04.205Z,23.78
2023-02-23T20:56:30.606Z,23.76
2023-02-23T20:58:56.954Z,23.76
2023-02-23T21:01:24.060Z,23.76
2023-02-23T21:03:49.707Z,23.76
2023-02-23T21:06:16.116Z,23.74
2023-02-23T21:08:42.436Z,23.74
2023-02-23T21:11:08.880Z,23.75
2023-02-23T21:13:35.184Z,23.73
2023-02-23T21:16:01.772Z,23.73
2023-02-23T21:18:27.915Z,23.72
2023-02-23T21:20:56.326Z,23.72
2023-02-23T21:23:20.732Z,23.70
2023-02-23T21:25:47.130Z,23.70
2023-02-23T21:28:13.456Z,23.70
2023-02-23T21:30:39.935Z,23.68
2023-02-23T21:33:07.650Z,23.68
2023-02-23T21:35:32.581Z,23.68
2023-02-23T21:37:58.926Z,23.67
2023-02-23T21:40:25.310Z,23.65
2023-02-23T21:42:51.737Z,23.66
2023-02-23T21:45:18.116Z,23.65
2023-02-23T21:47:44.481Z,23.66
2023-02-23T21:50:10.852Z,23.64
2023-02-23T21:52:38.274Z,23.63
2023-02-23T21:55:07.760Z,23.63
2023-02-23T21:57:30.992Z,23.63
2023-02-23T21:59:57.381Z,23.61
2023-02-23T22:02:23.781Z,23.61
2023-02-23T22:04:50.115Z,23.61
2023-02-23T22:07:16.494Z,23.61
2023-02-23T22:09:42.826Z,23.60
2023-02-23T22:12:09.219Z,23.60
2023-02-23T22:14:35.562Z,23.59
2023-02-23T22:17:01.946Z,23.59
2023-02-23T22:19:28.283Z,23.59
2023-02-23T22:21:54.675Z,23.57
2023-02-23T22:24:22.241Z,23.57
2023-02-23T22:26:47.402Z,23.55
2023-02-23T22:29:13.753Z,23.55
2023-02-23T22:31:40.281Z,23.55
2023-02-23T22:34:06.515Z,23.55
2023-02-23T22:36:34.358Z,23.56
2023-02-23T22:38:59.243Z,23.54
2023-02-23T22:41:27.375Z,23.53
2023-02-23T22:43:52.054Z,23.53
2023-02-23T22:46:18.496Z,23.51
2023-02-23T22:51:23.366Z,23.50
2023-02-23T22:53:49.470Z,23.49
2023-02-23T22:56:15.846Z,23.49
2023-02-23T22:58:42.397Z,23.50
2023-02-23T23:01:08.560Z,23.48
2023-02-23T23:03:35.001Z,23.47
2023-02-23T23:06:01.284Z,23.47
2023-02-23T23:08:27.677Z,23.44
2023-02-23T23:10:54.063Z,23.45
2023-02-23T23:13:20.412Z,23.44
2023-02-23T23:15:46.756Z,23.45
2023-02-23T23:18:13.157Z,23.44
2023-02-23T23:20:39.504Z,23.44
2023-02-23T23:23:05.885Z,23.43
2023-02-23T23:25:32.223Z,23.43
2023-02-23T23:27:58.618Z,23.43
2023-02-23T23:30:24.964Z,23.43
2023-02-23T23:32:51.469Z,23.41
2023-02-23T23:35:17.696Z,23.41
2023-02-23T23:37:44.073Z,23.39
2023-02-23T23:40:10.424Z,23.40
2023-02-23T23:42:36.812Z,23.40
2023-02-23T23:45:03.183Z,23.39
2023-02-23T23:47:29.569Z,23.38
2023-02-23T23:49:55.904Z,23.38
2023-02-23T23:52:22.289Z,23.37
2023-02-23T23:54:48.636Z,23.37
2023-02-23T23:57:15.030Z,23.36
2023-02-23T23:59:41.419Z,23.36
